createdAt,value
2018-02-03T00:02:03.148Z,6.30
2018-02-03T00:04:31.458Z,7.47
2018-02-03T00:06:59.552Z,7.03
2018-02-03T00:09:27.593Z,8.00
2018-02-03T00:11:55.694Z,11.10
2018-02-03T00:14:23.750Z,8.27
2018-02-03T00:16:52.100Z,13.50
2018-02-03T00:19:19.989Z,11.93
2018-02-03T00:21:47.855Z,11.90
2018-02-03T00:24:15.794Z,7.60
2018-02-03T00:26:43.821Z,5.33
2018-02-03T00:29:11.754Z,10.43
2018-02-03T00:31:39.559Z,21.40
2018-02-03T00:34:07.492Z,20.43
2018-02-03T00:36:35.515Z,14.43
2018-02-03T00:39:03.780Z,16.10
2018-02-03T00:41:31.690Z,15.70
2018-02-03T00:43:59.512Z,14.00
2018-02-03T00:46:27.248Z,16.07
2018-02-03T00:48:55.213Z,15.27
2018-02-03T00:51:23.328Z,17.87
2018-02-03T00:53:51.381Z,15.47
2018-02-03T00:56:19.439Z,15.53
2018-02-03T00:58:47.280Z,8.47
2018-02-03T01:01:15.048Z,8.47
2018-02-03T01:03:43.067Z,7.70
2018-02-03T01:06:11.134Z,6.63
2018-02-03T01:08:39.203Z,5.37
2018-02-03T01:11:07.221Z,5.43
2018-02-03T01:13:35.135Z,7.87
2018-02-03T01:16:03.213Z,9.33
2018-02-03T01:18:31.343Z,11.70
2018-02-03T01:20:59.000Z,9.03
2018-02-03T01:23:26.812Z,8.70
2018-02-03T01:25:54.882Z,9.83
2018-02-03T01:28:22.956Z,7.50
2018-02-03T01:30:51.030Z,6.90
2018-02-03T01:33:18.968Z,7.60
2018-02-03T01:35:47.035Z,9.27
2018-02-03T01:38:14.942Z,11.97
2018-02-03T01:40:43.011Z,9.57
2018-02-03T01:43:11.118Z,9.07
2018-02-03T01:45:39.004Z,7.77
2018-02-03T01:48:06.874Z,8.03
2018-02-03T01:50:34.743Z,10.30
2018-02-03T01:53:02.549Z,6.97
2018-02-03T01:55:30.622Z,8.93
2018-02-03T01:57:59.089Z,7.93
2018-02-03T02:00:27.214Z,12.97
2018-02-03T02:02:55.049Z,7.93
2018-02-03T02:05:22.771Z,6.43
2018-02-03T02:07:50.754Z,5.07
2018-02-03T02:10:18.644Z,6.03
2018-02-03T02:12:46.640Z,6.80
2018-02-03T02:15:14.789Z,7.13
2018-02-03T02:17:43.244Z,9.27
2018-02-03T02:20:11.646Z,8.30
2018-02-03T02:22:39.929Z,11.60
2018-02-03T02:25:07.647Z,12.93
2018-02-03T02:27:35.692Z,19.97
2018-02-03T02:30:03.858Z,16.10
2018-02-03T02:32:31.527Z,18.23
2018-02-03T02:34:59.420Z,17.77
2018-02-03T02:37:27.334Z,22.80
2018-02-03T02:39:55.499Z,20.33
2018-02-03T02:42:23.238Z,15.40
2018-02-03T02:44:50.950Z,23.70
2018-02-03T02:47:18.697Z,22.83
2018-02-03T02:49:46.479Z,18.27
2018-02-03T02:52:14.173Z,18.67
2018-02-03T02:54:41.862Z,16.10
2018-02-03T02:57:09.622Z,14.60
2018-02-03T02:59:37.293Z,13.70
2018-02-03T03:02:05.014Z,9.00
2018-02-03T03:04:32.777Z,11.10
2018-02-03T03:07:00.482Z,12.03
2018-02-03T03:09:28.229Z,12.37
2018-02-03T03:11:55.902Z,10.47
2018-02-03T03:14:23.615Z,7.57
2018-02-03T03:16:51.275Z,5.67
2018-02-03T03:19:18.982Z,8.33
2018-02-03T03:21:46.724Z,11.97
2018-02-03T03:24:14.487Z,7.80
2018-02-03T03:26:42.182Z,6.03
2018-02-03T03:29:09.906Z,5.93
2018-02-03T03:31:37.645Z,8.23
2018-02-03T03:34:05.365Z,4.13
2018-02-03T03:36:33.493Z,5.03
2018-02-03T03:39:01.197Z,10.60
2018-02-03T03:41:28.913Z,8.43
2018-02-03T03:43:56.633Z,11.70
2018-02-03T03:46:24.342Z,12.47
2018-02-03T03:48:52.074Z,11.80
2018-02-03T03:51:19.816Z,7.30
2018-02-03T03:53:47.494Z,9.80
2018-02-03T03:56:15.203Z,9.33
2018-02-03T03:58:42.954Z,13.47
2018-02-03T04:01:10.732Z,18.73
2018-02-03T04:03:38.429Z,15.47
2018-02-03T04:06:06.149Z,23.43
2018-02-03T04:08:33.969Z,20.00
2018-02-03T04:11:01.683Z,18.83
2018-02-03T04:13:29.436Z,19.73
2018-02-03T04:15:57.178Z,16.03
2018-02-03T04:18:24.866Z,30.80
2018-02-03T04:20:52.629Z,16.93
2018-02-03T04:23:20.307Z,20.80
2018-02-03T04:25:48.104Z,15.90
2018-02-03T04:28:15.810Z,18.23
2018-02-03T04:30:43.690Z,19.20
2018-02-03T04:33:11.457Z,22.60
2018-02-03T04:35:39.166Z,12.83
2018-02-03T04:38:06.903Z,18.20
2018-02-03T04:40:34.619Z,15.53
2018-02-03T04:43:02.389Z,17.10
2018-02-03T04:45:30.077Z,22.87
2018-02-03T04:47:57.807Z,17.87
2018-02-03T04:50:25.519Z,23.10
2018-02-03T04:52:53.286Z,16.87
2018-02-03T04:55:21.029Z,24.53
2018-02-03T04:57:48.904Z,21.00
2018-02-03T05:00:16.794Z,19.10
2018-02-03T05:02:44.938Z,17.53
2018-02-03T05:05:12.906Z,17.43
2018-02-03T05:07:41.587Z,19.60
2018-02-03T05:10:09.667Z,21.33
2018-02-03T05:12:37.723Z,18.60
2018-02-03T05:15:05.814Z,18.97
2018-02-03T05:17:33.932Z,20.40
2018-02-03T05:20:02.026Z,13.63
2018-02-03T05:22:29.894Z,22.57
2018-02-03T05:24:57.995Z,20.60
2018-02-03T05:27:26.068Z,18.33
2018-02-03T05:29:54.068Z,15.97
2018-02-03T05:32:22.968Z,12.30
2018-02-03T05:34:50.793Z,14.50
2018-02-03T05:37:18.869Z,13.50
2018-02-03T05:39:46.736Z,12.47
2018-02-03T05:42:14.706Z,19.20
2018-02-03T05:44:44.311Z,20.47
2018-02-03T05:47:12.458Z,20.37
2018-02-03T05:49:40.559Z,21.83
2018-02-03T05:52:08.629Z,21.60
2018-02-03T05:54:36.685Z,21.40
2018-02-03T05:57:04.773Z,18.80
2018-02-03T05:59:32.848Z,16.07
2018-02-03T06:02:00.869Z,16.00
2018-02-03T06:04:28.991Z,20.00
2018-02-03T06:06:56.957Z,15.60
2018-02-03T06:09:24.988Z,17.90
2018-02-03T06:11:54.009Z,14.00
2018-02-03T06:14:21.752Z,14.30
2018-02-03T06:16:49.474Z,16.13
2018-02-03T06:19:17.220Z,10.87
2018-02-03T06:21:44.945Z,14.37
2018-02-03T06:24:12.696Z,13.63
2018-02-03T06:26:40.470Z,8.77
2018-02-03T06:29:08.294Z,10.13
2018-02-03T06:31:35.992Z,8.30
2018-02-03T06:34:03.979Z,18.13
2018-02-03T06:36:31.878Z,11.77
2018-02-03T06:38:59.950Z,15.30
2018-02-03T06:41:27.887Z,21.20
2018-02-03T06:43:55.591Z,24.73
2018-02-03T06:46:23.372Z,16.70
2018-02-03T06:48:51.087Z,19.40
2018-02-03T06:51:19.083Z,16.37
2018-02-03T06:53:47.152Z,21.63
2018-02-03T06:56:15.247Z,19.93
2018-02-03T06:58:43.499Z,21.83
2018-02-03T07:01:11.369Z,15.27
2018-02-03T07:03:39.467Z,18.13
2018-02-03T07:06:07.866Z,27.00
2018-02-03T07:08:35.547Z,25.67
2018-02-03T07:11:03.350Z,33.20
2018-02-03T07:13:31.113Z,24.23
2018-02-03T07:15:58.883Z,28.37
2018-02-03T07:18:26.733Z,27.00
2018-02-03T07:20:54.566Z,20.93
2018-02-03T07:23:22.295Z,24.47
2018-02-03T07:25:50.048Z,26.37
2018-02-03T07:28:18.598Z,24.53
2018-02-03T07:30:46.365Z,28.03
2018-02-03T07:33:14.123Z,23.80
2018-02-03T07:35:41.974Z,26.23
2018-02-03T07:38:09.727Z,27.97
2018-02-03T07:40:37.483Z,23.83
2018-02-03T07:43:05.366Z,22.13
2018-02-03T07:45:33.151Z,16.50
2018-02-03T07:48:00.903Z,21.00
2018-02-03T07:50:28.713Z,20.87
2018-02-03T07:52:56.579Z,19.20
2018-02-03T07:55:24.293Z,26.53
2018-02-03T07:57:52.305Z,24.83
2018-02-03T08:00:20.382Z,23.10
2018-02-03T08:02:48.455Z,23.07
2018-02-03T08:05:16.386Z,22.33
2018-02-03T08:07:44.290Z,27.93
2018-02-03T08:10:12.217Z,25.30
2018-02-03T08:12:40.133Z,28.30
2018-02-03T08:15:08.051Z,22.77
2018-02-03T08:17:36.142Z,32.43
2018-02-03T08:20:04.241Z,20.40
2018-02-03T08:22:32.014Z,18.33
2018-02-03T08:24:59.979Z,23.97
2018-02-03T08:27:28.137Z,32.70
2018-02-03T08:29:56.026Z,37.83
2018-02-03T08:32:23.949Z,38.93
2018-02-03T08:34:51.828Z,45.77
2018-02-03T08:37:19.594Z,43.27
2018-02-03T08:39:48.036Z,39.73
2018-02-03T08:42:15.940Z,38.17
2018-02-03T08:44:43.684Z,43.83
2018-02-03T08:47:11.431Z,37.60
2018-02-03T08:49:39.157Z,41.00
2018-02-03T08:52:06.901Z,27.90
2018-02-03T08:54:34.658Z,37.63
2018-02-03T08:57:03.340Z,29.40
2018-02-03T08:59:31.131Z,40.30
2018-02-03T09:01:58.917Z,29.30
2018-02-03T09:04:26.841Z,17.17
2018-02-03T09:06:55.683Z,24.37
2018-02-03T09:09:23.429Z,28.13
2018-02-03T09:12:02.747Z,25.67
2018-02-03T09:14:30.635Z,22.13
2018-02-03T09:16:58.423Z,19.40
2018-02-03T09:19:26.191Z,20.27
2018-02-03T09:21:53.899Z,24.20
2018-02-03T09:24:21.700Z,28.50
2018-02-03T09:26:49.409Z,20.33
2018-02-03T09:29:17.422Z,23.17
2018-02-03T09:31:45.125Z,24.60
2018-02-03T09:34:12.845Z,19.57
2018-02-03T09:36:41.331Z,21.23
2018-02-03T09:39:09.143Z,17.43
2018-02-03T09:41:36.835Z,19.10
2018-02-03T09:44:04.612Z,14.90
2018-02-03T09:46:32.386Z,15.10
2018-02-03T09:49:00.177Z,14.60
2018-02-03T09:51:28.192Z,20.07
2018-02-03T09:53:56.076Z,17.77
2018-02-03T09:56:23.880Z,19.00
2018-02-03T09:58:51.728Z,28.00
2018-02-03T10:01:19.545Z,28.60
2018-02-03T10:03:47.365Z,21.80
2018-02-03T10:06:15.162Z,23.60
2018-02-03T10:08:43.034Z,24.50
2018-02-03T10:11:10.875Z,23.70
2018-02-03T10:13:38.993Z,19.63
2018-02-03T10:16:07.102Z,26.43
2018-02-03T10:18:35.220Z,15.70
2018-02-03T10:21:03.214Z,19.13
2018-02-03T10:23:31.427Z,12.87
2018-02-03T10:25:59.623Z,14.63
2018-02-03T10:28:27.742Z,17.60
2018-02-03T10:30:55.856Z,22.00
2018-02-03T10:33:23.910Z,22.63
2018-02-03T10:35:51.817Z,16.37
2018-02-03T10:38:20.406Z,18.33
2018-02-03T10:40:49.729Z,16.23
2018-02-03T10:43:17.721Z,19.50
2018-02-03T10:45:45.603Z,17.67
2018-02-03T10:48:15.083Z,18.80
2018-02-03T10:50:43.693Z,21.00
2018-02-03T10:53:11.693Z,21.33
2018-02-03T10:55:40.039Z,26.60
2018-02-03T10:58:07.914Z,21.60
2018-02-03T11:00:41.353Z,20.93
2018-02-03T11:03:09.474Z,20.90
2018-02-03T11:05:38.570Z,19.83
2018-02-03T11:08:07.636Z,20.80
2018-02-03T11:10:35.504Z,18.57
2018-02-03T11:13:03.592Z,14.10
2018-02-03T11:15:31.297Z,10.00
2018-02-03T11:17:59.049Z,10.53
2018-02-03T11:20:26.727Z,8.73
2018-02-03T11:22:54.532Z,20.10
2018-02-03T11:25:22.350Z,22.93
2018-02-03T11:27:50.084Z,22.03
2018-02-03T11:30:17.771Z,20.13
2018-02-03T11:32:45.804Z,21.90
2018-02-03T11:35:13.749Z,20.23
2018-02-03T11:37:41.838Z,15.00
2018-02-03T11:40:10.032Z,12.23
2018-02-03T11:42:38.319Z,11.57
2018-02-03T11:45:06.368Z,11.20
2018-02-03T11:47:34.459Z,13.17
2018-02-03T11:50:02.324Z,10.07
2018-02-03T11:52:30.209Z,10.87
2018-02-03T11:54:58.234Z,14.40
2018-02-03T11:57:26.432Z,9.30
2018-02-03T11:59:54.891Z,8.27
2018-02-03T12:02:22.972Z,11.43
2018-02-03T12:04:51.071Z,11.47
2018-02-03T12:07:19.135Z,12.33
2018-02-03T12:09:47.185Z,10.20
2018-02-03T12:12:15.098Z,8.33
2018-02-03T12:14:43.148Z,12.30
2018-02-03T12:17:11.292Z,8.20
2018-02-03T12:19:39.154Z,6.90
2018-02-03T12:22:07.769Z,8.30
2018-02-03T12:24:36.039Z,7.90
2018-02-03T12:27:04.120Z,6.27
2018-02-03T12:29:32.201Z,8.93
2018-02-03T12:32:00.215Z,9.37
2018-02-03T12:34:28.136Z,5.40
2018-02-03T12:36:56.003Z,6.57
2018-02-03T12:39:23.837Z,9.50
2018-02-03T12:41:51.613Z,8.47
2018-02-03T12:44:19.323Z,6.57
2018-02-03T12:46:48.290Z,5.50
2018-02-03T12:49:16.284Z,6.20
2018-02-03T12:51:44.297Z,8.07
2018-02-03T12:54:12.195Z,5.90
2018-02-03T12:56:40.082Z,3.43
2018-02-03T12:59:08.238Z,4.90
2018-02-03T13:01:36.753Z,2.73
2018-02-03T13:04:04.996Z,5.57
2018-02-03T13:06:33.248Z,6.80
2018-02-03T13:09:01.504Z,8.30
2018-02-03T13:11:29.591Z,4.90
2018-02-03T13:13:57.678Z,11.50
2018-02-03T13:16:26.750Z,1.93
2018-02-03T13:18:54.716Z,3.53
2018-02-03T13:21:22.726Z,1.30
2018-02-03T13:23:51.818Z,1.70
2018-02-03T13:26:19.901Z,2.13
2018-02-03T13:28:47.966Z,1.67
2018-02-03T13:31:17.065Z,6.10
2018-02-03T13:33:45.960Z,9.00
2018-02-03T13:36:14.406Z,4.07
2018-02-03T13:38:42.495Z,4.20
2018-02-03T13:41:11.416Z,3.83
2018-02-03T13:43:40.754Z,5.00
2018-02-03T13:46:08.623Z,8.73
2018-02-03T13:48:36.646Z,3.47
2018-02-03T13:51:04.710Z,4.43
2018-02-03T13:53:32.720Z,2.70
2018-02-03T13:56:00.757Z,5.80
2018-02-03T13:58:28.848Z,2.30
2018-02-03T14:00:56.730Z,2.43
2018-02-03T14:03:24.691Z,2.77
2018-02-03T14:05:52.839Z,3.93
2018-02-03T14:08:20.677Z,3.77
2018-02-03T14:10:48.497Z,4.87
2018-02-03T14:13:17.757Z,11.63
2018-02-03T14:15:45.835Z,5.23
2018-02-03T14:18:13.873Z,7.10
2018-02-03T14:20:41.957Z,7.37
2018-02-03T14:23:10.027Z,2.73
2018-02-03T14:25:38.624Z,3.33
2018-02-03T14:28:06.921Z,5.47
2018-02-03T14:30:34.621Z,4.10
2018-02-03T14:33:03.479Z,1.97
2018-02-03T14:35:31.753Z,2.33
2018-02-03T14:37:59.823Z,4.13
2018-02-03T14:40:27.702Z,1.90
2018-02-03T14:42:56.358Z,2.40
2018-02-03T14:45:25.155Z,5.13
2018-02-03T14:47:53.098Z,3.93
2018-02-03T14:50:21.204Z,8.80
2018-02-03T14:52:49.277Z,9.37
2018-02-03T14:55:18.508Z,5.70
2018-02-03T14:57:46.425Z,9.27
2018-02-03T15:00:14.722Z,9.50
2018-02-03T15:02:42.673Z,6.13
2018-02-03T15:05:10.818Z,6.43
2018-02-03T15:07:38.807Z,6.50
2018-02-03T15:10:07.447Z,6.83
2018-02-03T15:12:35.363Z,3.10
2018-02-03T15:15:03.356Z,3.87
2018-02-03T15:17:32.269Z,4.17
2018-02-03T15:20:00.078Z,3.20
2018-02-03T15:22:28.189Z,5.93
2018-02-03T15:24:56.224Z,8.10
2018-02-03T15:27:24.126Z,2.73
2018-02-03T15:29:53.019Z,9.43
2018-02-03T15:32:21.386Z,5.17
2018-02-03T15:34:49.468Z,4.87
2018-02-03T15:37:18.152Z,3.53
2018-02-03T15:39:46.148Z,3.27
2018-02-03T15:42:14.291Z,4.07
2018-02-03T15:44:42.492Z,4.53
2018-02-03T15:47:11.629Z,3.13
2018-02-03T15:49:40.235Z,2.47
2018-02-03T15:52:08.859Z,2.17
2018-02-03T15:54:37.595Z,8.57
2018-02-03T15:57:05.499Z,1.97
2018-02-03T15:59:33.640Z,7.93
2018-02-03T16:02:01.727Z,3.63
2018-02-03T16:04:29.930Z,3.20
2018-02-03T16:06:58.067Z,3.43
2018-02-03T16:09:26.129Z,2.70
2018-02-03T16:11:54.200Z,6.17
2018-02-03T16:14:22.787Z,5.50
2018-02-03T16:16:50.856Z,4.67
2018-02-03T16:19:18.723Z,3.07
2018-02-03T16:21:46.588Z,3.93
2018-02-03T16:24:14.756Z,6.00
2018-02-03T16:26:43.688Z,5.27
2018-02-03T16:29:12.848Z,6.50
2018-02-03T16:31:41.106Z,4.73
2018-02-03T16:34:08.975Z,9.80
2018-02-03T16:36:36.865Z,4.07
2018-02-03T16:39:04.763Z,8.77
2018-02-03T16:41:32.529Z,7.10
2018-02-03T16:44:01.292Z,9.50
2018-02-03T16:46:30.506Z,10.73
2018-02-03T16:48:58.595Z,9.77
2018-02-03T16:51:26.461Z,12.27
2018-02-03T16:53:54.307Z,12.60
2018-02-03T16:56:29.951Z,11.20
2018-02-03T16:58:57.897Z,14.43
2018-02-03T17:01:25.861Z,10.53
2018-02-03T17:03:53.914Z,11.47
2018-02-03T17:06:22.266Z,11.40
2018-02-03T17:08:50.816Z,11.00
2018-02-03T17:11:19.523Z,13.00
2018-02-03T17:13:47.636Z,15.87
2018-02-03T17:16:15.777Z,13.13
2018-02-03T17:18:43.927Z,11.67
2018-02-03T17:21:12.498Z,20.37
2018-02-03T17:23:40.712Z,11.60
2018-02-03T17:26:08.679Z,9.80
2018-02-03T17:28:37.129Z,11.30
2018-02-03T17:31:05.063Z,8.63
2018-02-03T17:33:33.109Z,8.07
2018-02-03T17:36:01.250Z,9.00
2018-02-03T17:38:35.172Z,10.63
2018-02-03T17:41:04.282Z,7.80
2018-02-03T17:43:32.253Z,11.47
2018-02-03T17:46:05.869Z,12.73
2018-02-03T17:48:33.755Z,11.63
2018-02-03T17:51:02.219Z,8.03
2018-02-03T17:53:30.169Z,9.90
2018-02-03T17:56:03.876Z,17.00
2018-02-03T17:58:34.246Z,26.70
2018-02-03T18:01:02.464Z,20.67
2018-02-03T18:03:30.435Z,15.53
2018-02-03T18:05:59.376Z,12.83
2018-02-03T18:08:27.154Z,14.47
2018-02-03T18:10:55.335Z,9.87
2018-02-03T18:13:23.238Z,13.30
2018-02-03T18:15:51.320Z,12.00
2018-02-03T18:18:19.235Z,20.70
2018-02-03T18:20:47.603Z,11.70
2018-02-03T18:23:16.261Z,11.80
2018-02-03T18:25:44.384Z,7.90
2018-02-03T18:28:13.228Z,10.20
2018-02-03T18:30:41.097Z,9.03
2018-02-03T18:33:09.636Z,7.73
2018-02-03T18:35:37.609Z,9.07
2018-02-03T18:38:05.608Z,9.60
2018-02-03T18:40:34.306Z,9.77
2018-02-03T18:43:02.359Z,12.00
2018-02-03T18:45:42.092Z,9.93
2018-02-03T18:48:10.238Z,6.60
2018-02-03T18:50:38.362Z,11.60
2018-02-03T18:53:06.424Z,7.80
2018-02-03T18:55:34.497Z,8.20
2018-02-03T18:58:02.365Z,8.70
2018-02-03T19:00:30.662Z,6.10
2018-02-03T19:02:59.937Z,9.40
2018-02-03T19:05:28.204Z,5.67
2018-02-03T19:07:56.265Z,5.57
2018-02-03T19:10:24.360Z,8.10
2018-02-03T19:12:52.630Z,5.73
2018-02-03T19:15:21.672Z,6.90
2018-02-03T19:17:49.732Z,10.00
2018-02-03T19:20:18.450Z,11.63
2018-02-03T19:22:46.467Z,17.40
2018-02-03T19:25:14.512Z,14.33
2018-02-03T19:27:42.605Z,14.40
2018-02-03T19:30:10.622Z,10.40
2018-02-03T19:32:38.873Z,11.70
2018-02-03T19:35:06.983Z,10.10
2018-02-03T19:37:34.996Z,11.87
2018-02-03T19:40:03.688Z,10.73
2018-02-03T19:42:31.752Z,11.23
2018-02-03T19:45:01.060Z,8.23
2018-02-03T19:47:29.219Z,5.53
2018-02-03T19:49:57.406Z,8.10
2018-02-03T19:52:25.555Z,10.50
2018-02-03T19:54:53.527Z,7.37
2018-02-03T19:57:22.991Z,20.23
2018-02-03T19:59:51.126Z,15.63
2018-02-03T20:02:19.197Z,18.83
2018-02-03T20:04:47.212Z,22.30
2018-02-03T20:07:15.551Z,14.33
2018-02-03T20:09:44.523Z,9.77
2018-02-03T20:12:13.536Z,11.90
2018-02-03T20:14:41.555Z,12.17
2018-02-03T20:17:09.580Z,11.77
2018-02-03T20:19:37.513Z,14.77
2018-02-03T20:22:06.332Z,11.27
2018-02-03T20:24:34.810Z,11.40
2018-02-03T20:27:03.793Z,9.80
2018-02-03T20:29:31.880Z,13.10
2018-02-03T20:31:59.953Z,13.07
2018-02-03T20:34:28.609Z,8.70
2018-02-03T20:36:56.556Z,9.33
2018-02-03T20:39:24.649Z,6.20
2018-02-03T20:41:52.722Z,7.43
2018-02-03T20:44:20.828Z,8.07
2018-02-03T20:46:48.830Z,5.13
2018-02-03T20:49:18.021Z,5.73
2018-02-03T20:51:46.985Z,7.63
2018-02-03T20:54:15.059Z,8.80
2018-02-03T20:56:43.066Z,5.03
2018-02-03T20:59:10.904Z,4.60
2018-02-03T21:01:38.892Z,3.97
2018-02-03T21:04:06.901Z,5.53
2018-02-03T21:06:34.860Z,2.80
2018-02-03T21:09:02.773Z,4.97
2018-02-03T21:11:30.642Z,1.60
2018-02-03T21:13:58.831Z,2.60
2018-02-03T21:16:26.680Z,1.93
2018-02-03T21:18:55.575Z,1.43
2018-02-03T21:21:23.645Z,2.10
2018-02-03T21:23:51.803Z,2.37
2018-02-03T21:26:20.269Z,3.73
2018-02-03T21:28:48.239Z,4.13
2018-02-03T21:31:16.428Z,5.07
2018-02-03T21:33:44.515Z,5.13
2018-02-03T21:36:12.690Z,6.67
2018-02-03T21:38:41.374Z,4.83
2018-02-03T21:41:10.394Z,5.77
2018-02-03T21:43:38.542Z,6.37
2018-02-03T21:46:06.820Z,7.33
2018-02-03T21:48:35.302Z,4.77
2018-02-03T21:51:03.081Z,7.40
2018-02-03T21:53:31.129Z,7.63
2018-02-03T21:55:59.210Z,8.63
2018-02-03T21:58:27.440Z,7.37
2018-02-03T22:00:55.763Z,7.00
2018-02-03T22:03:23.840Z,5.93
2018-02-03T22:05:51.909Z,4.57
2018-02-03T22:08:19.957Z,5.33
2018-02-03T22:10:48.258Z,2.97
2018-02-03T22:13:16.270Z,4.70
2018-02-03T22:15:44.582Z,7.77
2018-02-03T22:18:12.628Z,2.10
2018-02-03T22:20:40.566Z,3.60
2018-02-03T22:23:08.683Z,3.20
2018-02-03T22:25:37.019Z,4.30
2018-02-03T22:28:05.066Z,4.17
2018-02-03T22:30:33.082Z,6.40
2018-02-03T22:33:01.182Z,3.80
2018-02-03T22:35:29.065Z,4.20
2018-02-03T22:37:57.011Z,6.53
2018-02-03T22:40:25.840Z,2.27
2018-02-03T22:42:53.849Z,2.53
2018-02-03T22:45:22.511Z,3.50
2018-02-03T22:47:50.567Z,4.10
2018-02-03T22:50:18.515Z,5.73
2018-02-03T22:52:46.362Z,6.57
2018-02-03T22:55:14.530Z,6.03
2018-02-03T22:57:42.544Z,7.07
2018-02-03T23:00:10.823Z,2.50
2018-02-03T23:02:44.403Z,1.57
2018-02-03T23:05:12.494Z,3.10
2018-02-03T23:07:40.437Z,2.13
2018-02-03T23:10:08.434Z,3.67
2018-02-03T23:12:36.406Z,6.40
2018-02-03T23:15:05.100Z,5.17
2018-02-03T23:17:33.162Z,5.67
2018-02-03T23:20:01.200Z,6.37
2018-02-03T23:22:30.124Z,6.20
2018-02-03T23:24:58.132Z,7.50
2018-02-03T23:27:26.252Z,6.87
2018-02-03T23:29:54.149Z,6.67
2018-02-03T23:32:22.209Z,6.67
2018-02-03T23:34:50.285Z,7.50
2018-02-03T23:37:18.316Z,6.60
2018-02-03T23:39:46.982Z,7.53
2018-02-03T23:42:15.082Z,6.43
2018-02-03T23:44:43.164Z,7.67
2018-02-03T23:47:11.234Z,5.23
2018-02-03T23:49:39.643Z,4.13
2018-02-03T23:52:07.711Z,5.17
2018-02-03T23:54:36.360Z,5.43
2018-02-03T23:57:04.426Z,4.80
2018-02-03T23:59:32.257Z,3.70
